Villa Ridge, Illinois
Current Conditions -  °F | °C
As of 1:35 AM on Saturday 29 Nov 2014 (Local Time) from KCIR Reporting Station
Clear Clear  
Wind Chill: 40°   Ceiling: Unl
Heat Index: 43°   Visibility: 10mi
Dew Point: 31°   Wind: 6mph
Humidity: 62%   Direction: 180°S
Pressure: 30.01"   Gusts: NA
Location:  37.16°N, 89.19°W
Report Text: KCIR 290735Z AUTO 18005KT 10SM CLR 06/M01 A3001 RMK AO2 T00621006
Loading
Personal Weather Stations






























Interactive Weather Map New forecast layout! Learn more

10-Day Weather Forecast

Advertisements
Track Severe Weather on mobile